sensor_id;sensor_type;location;lat;lon;timestamp;P1;durP1;ratioP1;P2;durP2;ratioP2
64854;SDS011;51321;50.428;8.378;2022-07-22T00:01:16;3.33;;;3.00;;
64854;SDS011;51321;50.428;8.378;2022-07-22T00:03:39;3.35;;;2.70;;
64854;SDS011;51321;50.428;8.378;2022-07-22T00:06:01;3.67;;;2.92;;
64854;SDS011;51321;50.428;8.378;2022-07-22T00:08:25;4.45;;;3.25;;
64854;SDS011;51321;50.428;8.378;2022-07-22T00:10:46;6.25;;;3.47;;
64854;SDS011;51321;50.428;8.378;2022-07-22T00:13:08;5.97;;;3.53;;
64854;SDS011;51321;50.428;8.378;2022-07-22T00:15:30;3.58;;;3.28;;
64854;SDS011;51321;50.428;8.378;2022-07-22T00:17:52;4.53;;;3.38;;
64854;SDS011;51321;50.428;8.378;2022-07-22T00:20:14;4.53;;;3.15;;
64854;SDS011;51321;50.428;8.378;2022-07-22T00:22:36;7.05;;;3.92;;
64854;SDS011;51321;50.428;8.378;2022-07-22T00:24:59;5.43;;;3.47;;
64854;SDS011;51321;50.428;8.378;2022-07-22T00:27:21;5.80;;;3.97;;
64854;SDS011;51321;50.428;8.378;2022-07-22T00:29:43;4.95;;;3.13;;
64854;SDS011;51321;50.428;8.378;2022-07-22T00:32:05;3.80;;;2.90;;
64854;SDS011;51321;50.428;8.378;2022-07-22T00:34:27;3.30;;;2.75;;
64854;SDS011;51321;50.428;8.378;2022-07-22T00:36:48;6.20;;;3.30;;
64854;SDS011;51321;50.428;8.378;2022-07-22T00:39:10;4.35;;;3.63;;
64854;SDS011;51321;50.428;8.378;2022-07-22T00:41:33;5.32;;;3.25;;
64854;SDS011;51321;50.428;8.378;2022-07-22T00:43:57;4.63;;;3.47;;
64854;SDS011;51321;50.428;8.378;2022-07-22T00:46:21;3.47;;;3.10;;
64854;SDS011;51321;50.428;8.378;2022-07-22T00:48:45;5.40;;;3.65;;
64854;SDS011;51321;50.428;8.378;2022-07-22T00:51:07;5.57;;;3.15;;
64854;SDS011;51321;50.428;8.378;2022-07-22T00:53:29;5.53;;;3.33;;
64854;SDS011;51321;50.428;8.378;2022-07-22T00:55:51;4.68;;;3.17;;
64854;SDS011;51321;50.428;8.378;2022-07-22T00:58:14;4.85;;;3.08;;
64854;SDS011;51321;50.428;8.378;2022-07-22T01:00:36;4.53;;;3.15;;
64854;SDS011;51321;50.428;8.378;2022-07-22T01:02:58;6.90;;;3.50;;
64854;SDS011;51321;50.428;8.378;2022-07-22T01:05:20;5.45;;;3.10;;
64854;SDS011;51321;50.428;8.378;2022-07-22T01:07:41;5.32;;;3.42;;
64854;SDS011;51321;50.428;8.378;2022-07-22T01:10:04;6.03;;;3.42;;
64854;SDS011;51321;50.428;8.378;2022-07-22T01:12:27;6.65;;;3.20;;
64854;SDS011;51321;50.428;8.378;2022-07-22T01:14:50;5.40;;;4.20;;
64854;SDS011;51321;50.428;8.378;2022-07-22T01:17:12;4.07;;;3.15;;
64854;SDS011;51321;50.428;8.378;2022-07-22T01:19:35;3.95;;;3.13;;
64854;SDS011;51321;50.428;8.378;2022-07-22T01:21:59;5.78;;;2.90;;
64854;SDS011;51321;50.428;8.378;2022-07-22T01:24:21;6.82;;;3.55;;
64854;SDS011;51321;50.428;8.378;2022-07-22T01:26:43;6.60;;;3.13;;
64854;SDS011;51321;50.428;8.378;2022-07-22T01:29:12;5.15;;;3.58;;
64854;SDS011;51321;50.428;8.378;2022-07-22T01:31:37;6.63;;;3.60;;
64854;SDS011;51321;50.428;8.378;2022-07-22T01:33:59;5.15;;;3.45;;
64854;SDS011;51321;50.428;8.378;2022-07-22T01:36:27;4.28;;;3.75;;
64854;SDS011;51321;50.428;8.378;2022-07-22T01:38:51;5.25;;;3.50;;
64854;SDS011;51321;50.428;8.378;2022-07-22T01:41:13;5.53;;;3.60;;
64854;SDS011;51321;50.428;8.378;2022-07-22T01:43:35;9.00;;;3.42;;
64854;SDS011;51321;50.428;8.378;2022-07-22T01:45:57;4.40;;;3.85;;
64854;SDS011;51321;50.428;8.378;2022-07-22T01:48:19;6.60;;;4.30;;
64854;SDS011;51321;50.428;8.378;2022-07-22T01:50:42;5.38;;;3.75;;
64854;SDS011;51321;50.428;8.378;2022-07-22T01:53:05;8.30;;;5.13;;
64854;SDS011;51321;50.428;8.378;2022-07-22T01:55:28;6.43;;;3.97;;
64854;SDS011;51321;50.428;8.378;2022-07-22T01:57:50;6.22;;;4.18;;
64854;SDS011;51321;50.428;8.378;2022-07-22T02:00:19;8.35;;;3.60;;
64854;SDS011;51321;50.428;8.378;2022-07-22T02:02:41;6.75;;;4.38;;
64854;SDS011;51321;50.428;8.378;2022-07-22T02:05:04;6.90;;;4.07;;
64854;SDS011;51321;50.428;8.378;2022-07-22T02:07:27;5.30;;;4.03;;
64854;SDS011;51321;50.428;8.378;2022-07-22T02:09:49;6.30;;;3.88;;
64854;SDS011;51321;50.428;8.378;2022-07-22T02:12:13;7.85;;;4.60;;
64854;SDS011;51321;50.428;8.378;2022-07-22T02:14:39;5.30;;;3.75;;
64854;SDS011;51321;50.428;8.378;2022-07-22T02:17:01;10.80;;;4.93;;
64854;SDS011;51321;50.428;8.378;2022-07-22T02:19:25;8.27;;;4.03;;
64854;SDS011;51321;50.428;8.378;2022-07-22T02:21:47;8.93;;;4.25;;
64854;SDS011;51321;50.428;8.378;2022-07-22T02:24:09;4.97;;;4.20;;
64854;SDS011;51321;50.428;8.378;2022-07-22T02:26:31;7.85;;;4.43;;
64854;SDS011;51321;50.428;8.378;2022-07-22T02:28:55;5.60;;;3.50;;
64854;SDS011;51321;50.428;8.378;2022-07-22T02:31:17;7.30;;;4.57;;
64854;SDS011;51321;50.428;8.378;2022-07-22T02:33:40;5.65;;;4.63;;
64854;SDS011;51321;50.428;8.378;2022-07-22T02:36:03;7.65;;;4.35;;
64854;SDS011;51321;50.428;8.378;2022-07-22T02:38:27;6.05;;;4.22;;
64854;SDS011;51321;50.428;8.378;2022-07-22T02:40:49;5.32;;;4.47;;
64854;SDS011;51321;50.428;8.378;2022-07-22T02:43:11;5.68;;;4.32;;
64854;SDS011;51321;50.428;8.378;2022-07-22T02:45:34;8.07;;;5.32;;
64854;SDS011;51321;50.428;8.378;2022-07-22T02:47:56;6.88;;;4.40;;
64854;SDS011;51321;50.428;8.378;2022-07-22T02:50:19;5.90;;;4.22;;
64854;SDS011;51321;50.428;8.378;2022-07-22T02:52:42;6.43;;;5.15;;
64854;SDS011;51321;50.428;8.378;2022-07-22T02:55:05;7.40;;;4.90;;
64854;SDS011;51321;50.428;8.378;2022-07-22T02:57:27;11.45;;;5.20;;
64854;SDS011;51321;50.428;8.378;2022-07-22T02:59:49;7.80;;;5.18;;
64854;SDS011;51321;50.428;8.378;2022-07-22T03:02:12;5.50;;;4.55;;
64854;SDS011;51321;50.428;8.378;2022-07-22T03:04:34;5.47;;;4.97;;
64854;SDS011;51321;50.428;8.378;2022-07-22T03:09:18;9.60;;;5.63;;
64854;SDS011;51321;50.428;8.378;2022-07-22T03:14:03;10.13;;;5.25;;
64854;SDS011;51321;50.428;8.378;2022-07-22T03:16:25;7.85;;;5.20;;
64854;SDS011;51321;50.428;8.378;2022-07-22T03:18:48;6.05;;;5.10;;
64854;SDS011;51321;50.428;8.378;2022-07-22T03:21:10;5.90;;;5.18;;
64854;SDS011;51321;50.428;8.378;2022-07-22T03:23:32;9.00;;;5.93;;
64854;SDS011;51321;50.428;8.378;2022-07-22T03:25:54;7.47;;;6.10;;
64854;SDS011;51321;50.428;8.378;2022-07-22T03:28:16;5.63;;;5.13;;
64854;SDS011;51321;50.428;8.378;2022-07-22T03:30:38;6.60;;;5.50;;
64854;SDS011;51321;50.428;8.378;2022-07-22T03:33:00;7.53;;;4.88;;
64854;SDS011;51321;50.428;8.378;2022-07-22T03:35:27;7.10;;;5.03;;
64854;SDS011;51321;50.428;8.378;2022-07-22T03:37:49;7.82;;;5.97;;
64854;SDS011;51321;50.428;8.378;2022-07-22T03:40:12;7.63;;;6.10;;
64854;SDS011;51321;50.428;8.378;2022-07-22T03:42:35;7.68;;;6.07;;
64854;SDS011;51321;50.428;8.378;2022-07-22T03:44:57;8.05;;;5.63;;
64854;SDS011;51321;50.428;8.378;2022-07-22T03:47:19;6.75;;;5.50;;
64854;SDS011;51321;50.428;8.378;2022-07-22T03:49:41;5.82;;;5.22;;
64854;SDS011;51321;50.428;8.378;2022-07-22T03:52:07;7.93;;;6.13;;
64854;SDS011;51321;50.428;8.378;2022-07-22T03:54:29;6.55;;;5.95;;
64854;SDS011;51321;50.428;8.378;2022-07-22T03:56:51;8.57;;;5.57;;
64854;SDS011;51321;50.428;8.378;2022-07-22T03:59:12;11.10;;;7.20;;
64854;SDS011;51321;50.428;8.378;2022-07-22T04:01:34;9.65;;;7.35;;
64854;SDS011;51321;50.428;8.378;2022-07-22T04:03:56;6.45;;;5.72;;
64854;SDS011;51321;50.428;8.378;2022-07-22T04:06:22;7.03;;;6.32;;
64854;SDS011;51321;50.428;8.378;2022-07-22T04:08:52;7.20;;;6.13;;
64854;SDS011;51321;50.428;8.378;2022-07-22T04:11:15;7.47;;;5.60;;
64854;SDS011;51321;50.428;8.378;2022-07-22T04:13:36;7.15;;;5.75;;
64854;SDS011;51321;50.428;8.378;2022-07-22T04:15:58;7.32;;;6.55;;
64854;SDS011;51321;50.428;8.378;2022-07-22T04:18:22;7.57;;;6.03;;
64854;SDS011;51321;50.428;8.378;2022-07-22T04:20:44;7.35;;;5.78;;
64854;SDS011;51321;50.428;8.378;2022-07-22T04:23:15;10.23;;;6.47;;
64854;SDS011;51321;50.428;8.378;2022-07-22T04:28:01;8.13;;;5.55;;
64854;SDS011;51321;50.428;8.378;2022-07-22T04:30:22;7.38;;;5.97;;
64854;SDS011;51321;50.428;8.378;2022-07-22T04:32:45;7.63;;;5.35;;
64854;SDS011;51321;50.428;8.378;2022-07-22T04:35:07;9.00;;;6.47;;
64854;SDS011;51321;50.428;8.378;2022-07-22T04:37:34;6.82;;;5.25;;
64854;SDS011;51321;50.428;8.378;2022-07-22T04:39:56;7.05;;;5.35;;
64854;SDS011;51321;50.428;8.378;2022-07-22T04:42:19;6.60;;;5.88;;
64854;SDS011;51321;50.428;8.378;2022-07-22T04:44:43;9.55;;;5.93;;
64854;SDS011;51321;50.428;8.378;2022-07-22T04:47:05;8.82;;;5.97;;
64854;SDS011;51321;50.428;8.378;2022-07-22T04:49:27;7.10;;;5.38;;
64854;SDS011;51321;50.428;8.378;2022-07-22T04:51:52;6.50;;;5.45;;
64854;SDS011;51321;50.428;8.378;2022-07-22T04:54:24;6.53;;;5.05;;
64854;SDS011;51321;50.428;8.378;2022-07-22T04:56:49;8.73;;;5.75;;
64854;SDS011;51321;50.428;8.378;2022-07-22T04:59:12;6.43;;;5.15;;
64854;SDS011;51321;50.428;8.378;2022-07-22T05:01:35;5.78;;;4.47;;
64854;SDS011;51321;50.428;8.378;2022-07-22T05:03:57;5.75;;;5.05;;
64854;SDS011;51321;50.428;8.378;2022-07-22T05:06:19;6.32;;;5.65;;
64854;SDS011;51321;50.428;8.378;2022-07-22T05:08:41;9.25;;;4.63;;
64854;SDS011;51321;50.428;8.378;2022-07-22T05:11:03;7.13;;;4.97;;
64854;SDS011;51321;50.428;8.378;2022-07-22T05:13:26;5.90;;;4.90;;
64854;SDS011;51321;50.428;8.378;2022-07-22T05:15:49;5.07;;;4.57;;
64854;SDS011;51321;50.428;8.378;2022-07-22T05:18:11;5.57;;;3.90;;
64854;SDS011;51321;50.428;8.378;2022-07-22T05:20:34;7.10;;;4.55;;
64854;SDS011;51321;50.428;8.378;2022-07-22T05:22:56;5.28;;;4.07;;
64854;SDS011;51321;50.428;8.378;2022-07-22T05:25:21;6.20;;;4.55;;
64854;SDS011;51321;50.428;8.378;2022-07-22T05:27:48;4.63;;;4.00;;
64854;SDS011;51321;50.428;8.378;2022-07-22T05:30:13;5.05;;;4.57;;
64854;SDS011;51321;50.428;8.378;2022-07-22T05:32:36;4.88;;;3.97;;
64854;SDS011;51321;50.428;8.378;2022-07-22T05:34:59;4.53;;;3.55;;
64854;SDS011;51321;50.428;8.378;2022-07-22T05:37:21;5.07;;;4.22;;
64854;SDS011;51321;50.428;8.378;2022-07-22T05:39:42;4.22;;;3.83;;
64854;SDS011;51321;50.428;8.378;2022-07-22T05:42:04;6.68;;;5.03;;
64854;SDS011;51321;50.428;8.378;2022-07-22T05:44:26;6.40;;;4.15;;
64854;SDS011;51321;50.428;8.378;2022-07-22T05:46:48;4.07;;;3.67;;
64854;SDS011;51321;50.428;8.378;2022-07-22T05:49:11;6.47;;;3.88;;
64854;SDS011;51321;50.428;8.378;2022-07-22T05:51:46;4.53;;;3.78;;
64854;SDS011;51321;50.428;8.378;2022-07-22T05:54:08;4.72;;;4.15;;
64854;SDS011;51321;50.428;8.378;2022-07-22T05:56:30;4.57;;;3.25;;
64854;SDS011;51321;50.428;8.378;2022-07-22T05:58:52;4.22;;;3.67;;
64854;SDS011;51321;50.428;8.378;2022-07-22T06:01:15;4.68;;;3.55;;
64854;SDS011;51321;50.428;8.378;2022-07-22T06:03:38;6.00;;;4.45;;
64854;SDS011;51321;50.428;8.378;2022-07-22T06:06:01;4.57;;;3.65;;
64854;SDS011;51321;50.428;8.378;2022-07-22T06:08:24;3.75;;;3.10;;
64854;SDS011;51321;50.428;8.378;2022-07-22T06:10:47;5.03;;;3.78;;
64854;SDS011;51321;50.428;8.378;2022-07-22T06:13:09;4.20;;;3.60;;
64854;SDS011;51321;50.428;8.378;2022-07-22T06:15:33;3.83;;;3.53;;
64854;SDS011;51321;50.428;8.378;2022-07-22T06:17:56;4.85;;;3.30;;
64854;SDS011;51321;50.428;8.378;2022-07-22T06:20:18;3.03;;;2.72;;
64854;SDS011;51321;50.428;8.378;2022-07-22T06:22:42;4.75;;;2.90;;
64854;SDS011;51321;50.428;8.378;2022-07-22T06:25:04;4.80;;;2.90;;
64854;SDS011;51321;50.428;8.378;2022-07-22T06:27:27;5.00;;;3.40;;
64854;SDS011;51321;50.428;8.378;2022-07-22T06:29:50;4.28;;;2.80;;
64854;SDS011;51321;50.428;8.378;2022-07-22T06:32:12;3.47;;;2.63;;
64854;SDS011;51321;50.428;8.378;2022-07-22T06:34:34;3.55;;;2.42;;
64854;SDS011;51321;50.428;8.378;2022-07-22T06:36:58;4.60;;;2.50;;
64854;SDS011;51321;50.428;8.378;2022-07-22T06:39:21;3.90;;;2.35;;
64854;SDS011;51321;50.428;8.378;2022-07-22T06:42:01;3.40;;;2.47;;
64854;SDS011;51321;50.428;8.378;2022-07-22T06:44:43;4.05;;;2.45;;
64854;SDS011;51321;50.428;8.378;2022-07-22T06:47:14;3.10;;;1.80;;
64854;SDS011;51321;50.428;8.378;2022-07-22T06:49:36;5.30;;;2.30;;
64854;SDS011;51321;50.428;8.378;2022-07-22T06:51:58;4.30;;;2.38;;
64854;SDS011;51321;50.428;8.378;2022-07-22T06:54:22;4.70;;;3.05;;
64854;SDS011;51321;50.428;8.378;2022-07-22T06:56:46;2.38;;;1.48;;
64854;SDS011;51321;50.428;8.378;2022-07-22T06:59:13;1.85;;;1.40;;
64854;SDS011;51321;50.428;8.378;2022-07-22T07:01:34;2.35;;;1.33;;
64854;SDS011;51321;50.428;8.378;2022-07-22T07:06:18;2.40;;;1.87;;
64854;SDS011;51321;50.428;8.378;2022-07-22T07:08:58;2.15;;;1.00;;
64854;SDS011;51321;50.428;8.378;2022-07-22T07:11:22;1.75;;;0.93;;
64854;SDS011;51321;50.428;8.378;2022-07-22T07:13:45;2.53;;;1.02;;
64854;SDS011;51321;50.428;8.378;2022-07-22T07:16:07;4.00;;;1.33;;
64854;SDS011;51321;50.428;8.378;2022-07-22T07:18:29;3.03;;;1.23;;
64854;SDS011;51321;50.428;8.378;2022-07-22T07:20:51;2.58;;;1.20;;
64854;SDS011;51321;50.428;8.378;2022-07-22T07:23:13;3.47;;;1.48;;
64854;SDS011;51321;50.428;8.378;2022-07-22T07:25:38;2.58;;;1.33;;
64854;SDS011;51321;50.428;8.378;2022-07-22T07:30:56;1.60;;;1.30;;
64854;SDS011;51321;50.428;8.378;2022-07-22T07:33:18;2.17;;;1.30;;
64854;SDS011;51321;50.428;8.378;2022-07-22T07:35:40;2.72;;;1.17;;
64854;SDS011;51321;50.428;8.378;2022-07-22T07:38:02;1.58;;;1.35;;
64854;SDS011;51321;50.428;8.378;2022-07-22T07:40:26;2.05;;;1.20;;
64854;SDS011;51321;50.428;8.378;2022-07-22T07:42:47;1.50;;;1.00;;
64854;SDS011;51321;50.428;8.378;2022-07-22T07:45:13;2.15;;;1.48;;
64854;SDS011;51321;50.428;8.378;2022-07-22T07:47:34;1.95;;;1.40;;
64854;SDS011;51321;50.428;8.378;2022-07-22T07:49:56;2.55;;;1.13;;
64854;SDS011;51321;50.428;8.378;2022-07-22T07:52:20;1.63;;;1.52;;
64854;SDS011;51321;50.428;8.378;2022-07-22T07:54:42;2.70;;;1.60;;
64854;SDS011;51321;50.428;8.378;2022-07-22T07:59:26;4.35;;;1.55;;
64854;SDS011;51321;50.428;8.378;2022-07-22T08:01:49;2.85;;;1.85;;
64854;SDS011;51321;50.428;8.378;2022-07-22T08:04:11;2.95;;;1.45;;
64854;SDS011;51321;50.428;8.378;2022-07-22T08:06:33;2.33;;;1.42;;
64854;SDS011;51321;50.428;8.378;2022-07-22T08:08:55;2.45;;;1.48;;
64854;SDS011;51321;50.428;8.378;2022-07-22T08:11:25;2.80;;;1.77;;
64854;SDS011;51321;50.428;8.378;2022-07-22T08:13:55;2.42;;;1.42;;
64854;SDS011;51321;50.428;8.378;2022-07-22T08:16:27;2.58;;;1.23;;
64854;SDS011;51321;50.428;8.378;2022-07-22T08:18:51;3.17;;;1.20;;
64854;SDS011;51321;50.428;8.378;2022-07-22T08:21:13;2.70;;;1.23;;
64854;SDS011;51321;50.428;8.378;2022-07-22T08:23:44;1.45;;;1.20;;
64854;SDS011;51321;50.428;8.378;2022-07-22T08:26:06;2.78;;;1.10;;
64854;SDS011;51321;50.428;8.378;2022-07-22T08:28:28;2.88;;;1.50;;
64854;SDS011;51321;50.428;8.378;2022-07-22T08:30:50;2.65;;;1.40;;
64854;SDS011;51321;50.428;8.378;2022-07-22T08:33:12;3.58;;;1.42;;
64854;SDS011;51321;50.428;8.378;2022-07-22T08:35:37;1.50;;;1.30;;
64854;SDS011;51321;50.428;8.378;2022-07-22T08:37:59;2.08;;;1.52;;
64854;SDS011;51321;50.428;8.378;2022-07-22T08:40:22;1.88;;;1.50;;
64854;SDS011;51321;50.428;8.378;2022-07-22T08:42:46;1.88;;;1.25;;
64854;SDS011;51321;50.428;8.378;2022-07-22T08:45:10;2.15;;;1.00;;
64854;SDS011;51321;50.428;8.378;2022-07-22T08:47:32;1.92;;;1.55;;
64854;SDS011;51321;50.428;8.378;2022-07-22T08:50:08;2.53;;;1.45;;
64854;SDS011;51321;50.428;8.378;2022-07-22T08:52:39;3.28;;;1.50;;
64854;SDS011;51321;50.428;8.378;2022-07-22T08:55:02;1.77;;;1.10;;
64854;SDS011;51321;50.428;8.378;2022-07-22T08:57:25;2.35;;;1.15;;
64854;SDS011;51321;50.428;8.378;2022-07-22T08:59:50;2.08;;;1.25;;
64854;SDS011;51321;50.428;8.378;2022-07-22T09:02:13;2.20;;;1.33;;
64854;SDS011;51321;50.428;8.378;2022-07-22T09:04:50;1.20;;;1.02;;
64854;SDS011;51321;50.428;8.378;2022-07-22T09:07:13;2.08;;;1.33;;
64854;SDS011;51321;50.428;8.378;2022-07-22T09:09:47;1.85;;;1.70;;
64854;SDS011;51321;50.428;8.378;2022-07-22T09:12:29;1.80;;;1.55;;
64854;SDS011;51321;50.428;8.378;2022-07-22T09:15:15;1.55;;;1.23;;
64854;SDS011;51321;50.428;8.378;2022-07-22T09:17:59;2.03;;;1.67;;
64854;SDS011;51321;50.428;8.378;2022-07-22T09:20:29;1.55;;;1.35;;
64854;SDS011;51321;50.428;8.378;2022-07-22T09:23:10;2.00;;;1.70;;
64854;SDS011;51321;50.428;8.378;2022-07-22T09:25:37;2.60;;;1.40;;
64854;SDS011;51321;50.428;8.378;2022-07-22T09:28:23;1.75;;;1.40;;
64854;SDS011;51321;50.428;8.378;2022-07-22T09:31:03;2.08;;;1.25;;
64854;SDS011;51321;50.428;8.378;2022-07-22T09:33:30;3.78;;;1.48;;
64854;SDS011;51321;50.428;8.378;2022-07-22T09:36:14;2.47;;;1.50;;
64854;SDS011;51321;50.428;8.378;2022-07-22T09:38:37;3.20;;;1.50;;
64854;SDS011;51321;50.428;8.378;2022-07-22T09:41:00;2.13;;;1.40;;
64854;SDS011;51321;50.428;8.378;2022-07-22T09:43:22;2.40;;;1.38;;
64854;SDS011;51321;50.428;8.378;2022-07-22T09:45:49;2.35;;;1.50;;
64854;SDS011;51321;50.428;8.378;2022-07-22T09:48:17;1.40;;;1.30;;
64854;SDS011;51321;50.428;8.378;2022-07-22T09:50:49;2.33;;;1.60;;
64854;SDS011;51321;50.428;8.378;2022-07-22T09:53:15;2.25;;;2.05;;
64854;SDS011;51321;50.428;8.378;2022-07-22T09:55:43;1.77;;;1.33;;
64854;SDS011;51321;50.428;8.378;2022-07-22T09:58:06;2.72;;;1.50;;
64854;SDS011;51321;50.428;8.378;2022-07-22T10:00:29;2.20;;;1.58;;
64854;SDS011;51321;50.428;8.378;2022-07-22T10:02:52;1.80;;;1.33;;
64854;SDS011;51321;50.428;8.378;2022-07-22T10:05:16;2.95;;;1.55;;
64854;SDS011;51321;50.428;8.378;2022-07-22T10:07:40;1.80;;;1.52;;
64854;SDS011;51321;50.428;8.378;2022-07-22T10:10:03;4.90;;;1.90;;
64854;SDS011;51321;50.428;8.378;2022-07-22T10:12:26;3.72;;;1.73;;
64854;SDS011;51321;50.428;8.378;2022-07-22T10:14:50;2.30;;;1.77;;
64854;SDS011;51321;50.428;8.378;2022-07-22T10:17:12;1.95;;;1.63;;
64854;SDS011;51321;50.428;8.378;2022-07-22T10:19:37;2.95;;;1.48;;
64854;SDS011;51321;50.428;8.378;2022-07-22T10:21:59;3.33;;;1.70;;
64854;SDS011;51321;50.428;8.378;2022-07-22T10:24:21;2.25;;;1.48;;
64854;SDS011;51321;50.428;8.378;2022-07-22T10:26:51;2.33;;;1.33;;
64854;SDS011;51321;50.428;8.378;2022-07-22T10:29:25;1.88;;;1.60;;
64854;SDS011;51321;50.428;8.378;2022-07-22T10:31:49;1.95;;;1.73;;
64854;SDS011;51321;50.428;8.378;2022-07-22T10:34:11;2.33;;;1.20;;
64854;SDS011;51321;50.428;8.378;2022-07-22T10:36:34;3.97;;;1.67;;
64854;SDS011;51321;50.428;8.378;2022-07-22T10:39:01;5.00;;;1.77;;
64854;SDS011;51321;50.428;8.378;2022-07-22T10:41:32;2.65;;;1.58;;
64854;SDS011;51321;50.428;8.378;2022-07-22T10:43:55;1.90;;;1.50;;
64854;SDS011;51321;50.428;8.378;2022-07-22T10:46:17;1.73;;;1.40;;
64854;SDS011;51321;50.428;8.378;2022-07-22T10:48:46;1.85;;;1.67;;
64854;SDS011;51321;50.428;8.378;2022-07-22T10:51:08;2.03;;;1.27;;
64854;SDS011;51321;50.428;8.378;2022-07-22T10:53:41;3.55;;;1.60;;
64854;SDS011;51321;50.428;8.378;2022-07-22T10:56:12;1.80;;;1.35;;
64854;SDS011;51321;50.428;8.378;2022-07-22T10:58:47;2.17;;;1.48;;
64854;SDS011;51321;50.428;8.378;2022-07-22T11:01:12;2.88;;;1.73;;
64854;SDS011;51321;50.428;8.378;2022-07-22T11:03:36;4.43;;;1.83;;
64854;SDS011;51321;50.428;8.378;2022-07-22T11:06:08;4.40;;;1.67;;
64854;SDS011;51321;50.428;8.378;2022-07-22T11:08:34;2.50;;;1.70;;
64854;SDS011;51321;50.428;8.378;2022-07-22T11:10:56;1.75;;;1.60;;
64854;SDS011;51321;50.428;8.378;2022-07-22T11:13:30;2.28;;;1.70;;
64854;SDS011;51321;50.428;8.378;2022-07-22T11:15:52;2.80;;;1.20;;
64854;SDS011;51321;50.428;8.378;2022-07-22T11:18:13;1.70;;;1.52;;
64854;SDS011;51321;50.428;8.378;2022-07-22T11:20:35;1.92;;;1.60;;
64854;SDS011;51321;50.428;8.378;2022-07-22T11:22:58;2.17;;;1.60;;
64854;SDS011;51321;50.428;8.378;2022-07-22T11:25:20;2.95;;;1.60;;
64854;SDS011;51321;50.428;8.378;2022-07-22T11:27:48;4.30;;;1.95;;
64854;SDS011;51321;50.428;8.378;2022-07-22T11:30:11;2.83;;;1.90;;
64854;SDS011;51321;50.428;8.378;2022-07-22T11:32:40;2.72;;;1.73;;
64854;SDS011;51321;50.428;8.378;2022-07-22T11:35:03;4.43;;;2.35;;
64854;SDS011;51321;50.428;8.378;2022-07-22T11:37:27;1.92;;;1.70;;
64854;SDS011;51321;50.428;8.378;2022-07-22T11:39:50;3.08;;;2.30;;
64854;SDS011;51321;50.428;8.378;2022-07-22T11:42:19;2.90;;;2.10;;
64854;SDS011;51321;50.428;8.378;2022-07-22T11:44:41;2.15;;;1.88;;
64854;SDS011;51321;50.428;8.378;2022-07-22T11:47:03;3.75;;;1.85;;
64854;SDS011;51321;50.428;8.378;2022-07-22T11:49:26;2.30;;;2.10;;
64854;SDS011;51321;50.428;8.378;2022-07-22T11:51:50;4.57;;;1.88;;
64854;SDS011;51321;50.428;8.378;2022-07-22T11:54:13;3.35;;;2.00;;
64854;SDS011;51321;50.428;8.378;2022-07-22T11:56:36;2.85;;;2.30;;
64854;SDS011;51321;50.428;8.378;2022-07-22T11:58:58;3.55;;;2.22;;
64854;SDS011;51321;50.428;8.378;2022-07-22T12:01:25;3.28;;;2.25;;
64854;SDS011;51321;50.428;8.378;2022-07-22T12:03:49;2.83;;;2.20;;
64854;SDS011;51321;50.428;8.378;2022-07-22T12:06:13;2.85;;;2.17;;
64854;SDS011;51321;50.428;8.378;2022-07-22T12:08:39;3.28;;;2.08;;
64854;SDS011;51321;50.428;8.378;2022-07-22T12:11:02;2.60;;;2.08;;
64854;SDS011;51321;50.428;8.378;2022-07-22T12:13:29;2.53;;;1.73;;
64854;SDS011;51321;50.428;8.378;2022-07-22T12:15:51;2.90;;;2.10;;
64854;SDS011;51321;50.428;8.378;2022-07-22T12:20:42;2.55;;;2.10;;
64854;SDS011;51321;50.428;8.378;2022-07-22T12:23:04;2.78;;;2.35;;
64854;SDS011;51321;50.428;8.378;2022-07-22T12:25:27;2.45;;;2.08;;
64854;SDS011;51321;50.428;8.378;2022-07-22T12:30:21;5.00;;;3.05;;
64854;SDS011;51321;50.428;8.378;2022-07-22T12:32:46;4.07;;;2.88;;
64854;SDS011;51321;50.428;8.378;2022-07-22T12:35:08;3.17;;;2.60;;
64854;SDS011;51321;50.428;8.378;2022-07-22T12:42:18;4.65;;;2.58;;
64854;SDS011;51321;50.428;8.378;2022-07-22T12:44:40;2.75;;;2.20;;
64854;SDS011;51321;50.428;8.378;2022-07-22T12:47:13;2.80;;;2.58;;
64854;SDS011;51321;50.428;8.378;2022-07-22T12:49:35;3.72;;;2.92;;
64854;SDS011;51321;50.428;8.378;2022-07-22T12:52:06;4.07;;;3.35;;
64854;SDS011;51321;50.428;8.378;2022-07-22T12:54:29;4.07;;;2.92;;
64854;SDS011;51321;50.428;8.378;2022-07-22T12:56:51;4.22;;;2.70;;
64854;SDS011;51321;50.428;8.378;2022-07-22T12:59:13;3.30;;;2.90;;
64854;SDS011;51321;50.428;8.378;2022-07-22T13:03:58;4.55;;;3.00;;
64854;SDS011;51321;50.428;8.378;2022-07-22T13:06:20;4.20;;;2.60;;
64854;SDS011;51321;50.428;8.378;2022-07-22T13:11:03;3.00;;;2.70;;
64854;SDS011;51321;50.428;8.378;2022-07-22T13:13:25;5.20;;;3.10;;
64854;SDS011;51321;50.428;8.378;2022-07-22T13:18:09;5.07;;;2.60;;
64854;SDS011;51321;50.428;8.378;2022-07-22T13:20:32;4.82;;;3.20;;
64854;SDS011;51321;50.428;8.378;2022-07-22T13:22:54;3.42;;;3.13;;
64854;SDS011;51321;50.428;8.378;2022-07-22T13:27:38;3.63;;;2.75;;
64854;SDS011;51321;50.428;8.378;2022-07-22T13:30:00;3.80;;;2.90;;
64854;SDS011;51321;50.428;8.378;2022-07-22T13:34:43;3.28;;;2.92;;
64854;SDS011;51321;50.428;8.378;2022-07-22T13:39:28;3.08;;;2.78;;
64854;SDS011;51321;50.428;8.378;2022-07-22T13:44:12;3.00;;;2.78;;
64854;SDS011;51321;50.428;8.378;2022-07-22T13:51:17;5.50;;;3.17;;
64854;SDS011;51321;50.428;8.378;2022-07-22T13:56:02;3.55;;;2.90;;
64854;SDS011;51321;50.428;8.378;2022-07-22T13:58:25;5.93;;;3.42;;
64854;SDS011;51321;50.428;8.378;2022-07-22T14:00:47;3.58;;;3.13;;
64854;SDS011;51321;50.428;8.378;2022-07-22T14:05:30;7.70;;;3.65;;
64854;SDS011;51321;50.428;8.378;2022-07-22T14:10:15;6.95;;;3.53;;
64854;SDS011;51321;50.428;8.378;2022-07-22T14:12:37;6.03;;;3.60;;
64854;SDS011;51321;50.428;8.378;2022-07-22T14:14:59;4.97;;;3.30;;
64854;SDS011;51321;50.428;8.378;2022-07-22T14:19:42;4.30;;;3.40;;
64854;SDS011;51321;50.428;8.378;2022-07-22T14:24:26;5.07;;;3.92;;
64854;SDS011;51321;50.428;8.378;2022-07-22T14:29:10;6.05;;;3.25;;
64854;SDS011;51321;50.428;8.378;2022-07-22T14:33:55;3.55;;;3.22;;
64854;SDS011;51321;50.428;8.378;2022-07-22T14:36:16;5.53;;;3.25;;
64854;SDS011;51321;50.428;8.378;2022-07-22T14:38:38;3.88;;;3.15;;
64854;SDS011;51321;50.428;8.378;2022-07-22T14:43:23;5.35;;;3.42;;
64854;SDS011;51321;50.428;8.378;2022-07-22T14:45:46;6.80;;;3.90;;
64854;SDS011;51321;50.428;8.378;2022-07-22T14:50:29;3.75;;;3.22;;
64854;SDS011;51321;50.428;8.378;2022-07-22T14:55:13;3.38;;;3.05;;
64854;SDS011;51321;50.428;8.378;2022-07-22T14:57:35;5.60;;;3.33;;
64854;SDS011;51321;50.428;8.378;2022-07-22T15:02:20;3.15;;;2.85;;
64854;SDS011;51321;50.428;8.378;2022-07-22T15:07:03;4.00;;;3.58;;
64854;SDS011;51321;50.428;8.378;2022-07-22T15:09:25;3.85;;;3.28;;
64854;SDS011;51321;50.428;8.378;2022-07-22T15:11:47;4.82;;;3.05;;
64854;SDS011;51321;50.428;8.378;2022-07-22T15:14:09;5.35;;;3.60;;
64854;SDS011;51321;50.428;8.378;2022-07-22T15:18:54;3.70;;;3.20;;
64854;SDS011;51321;50.428;8.378;2022-07-22T15:23:37;4.45;;;3.08;;
64854;SDS011;51321;50.428;8.378;2022-07-22T15:28:22;4.63;;;3.10;;
64854;SDS011;51321;50.428;8.378;2022-07-22T15:30:44;4.28;;;3.08;;
64854;SDS011;51321;50.428;8.378;2022-07-22T15:33:07;3.67;;;3.22;;
64854;SDS011;51321;50.428;8.378;2022-07-22T15:35:29;4.55;;;3.28;;
64854;SDS011;51321;50.428;8.378;2022-07-22T15:37:50;3.50;;;3.20;;
64854;SDS011;51321;50.428;8.378;2022-07-22T15:42:34;4.20;;;3.10;;
64854;SDS011;51321;50.428;8.378;2022-07-22T15:44:56;3.85;;;3.15;;
64854;SDS011;51321;50.428;8.378;2022-07-22T15:47:18;4.07;;;3.15;;
64854;SDS011;51321;50.428;8.378;2022-07-22T15:49:41;4.28;;;3.72;;
64854;SDS011;51321;50.428;8.378;2022-07-22T15:52:03;3.50;;;3.20;;